sensor_id;sensor_type;location;lat;lon;timestamp;pressure;altitude;pressure_sealevel;temperature;humidity
42725;BME280;28369;44.046;23.014;2023-02-22T01:57:34;100631.59;;;11.71;43.12
42725;BME280;28369;44.046;23.014;2023-02-22T03:36:38;100494.31;;;9.06;50.40
42725;BME280;28369;44.046;23.014;2023-02-22T03:41:43;100491.50;;;9.30;49.45
42725;BME280;28369;44.046;23.014;2023-02-22T03:49:47;100483.81;;;9.06;49.33
42725;BME280;28369;44.046;23.014;2023-02-22T03:52:13;100890.81;;;11.78;50.12
42725;BME280;28369;44.046;23.014;2023-02-22T04:14:38;100916.03;;;12.73;48.16
42725;BME280;28369;44.046;23.014;2023-02-22T04:31:02;100928.34;;;12.63;48.09
42725;BME280;28369;44.046;23.014;2023-02-22T04:38:52;100896.13;;;12.50;48.12
42725;BME280;28369;44.046;23.014;2023-02-22T05:02:34;100577.06;;;10.92;46.68
42725;BME280;28369;44.046;23.014;2023-02-22T05:12:45;100659.06;;;11.28;47.03
42725;BME280;28369;44.046;23.014;2023-02-22T05:30:42;100771.22;;;11.50;48.11
42725;BME280;28369;44.046;23.014;2023-02-22T05:35:56;100564.13;;;10.27;47.46
42725;BME280;28369;44.046;23.014;2023-02-22T06:01:39;101156.38;;;14.02;47.83
42725;BME280;28369;44.046;23.014;2023-02-22T06:27:21;100815.78;;;12.54;46.32
42725;BME280;28369;44.046;23.014;2023-02-22T06:50:24;100744.44;;;12.75;45.67
42725;BME280;28369;44.046;23.014;2023-02-22T06:55:30;100689.88;;;12.66;45.55
42725;BME280;28369;44.046;23.014;2023-02-22T07:00:32;100668.00;;;12.93;45.25
42725;BME280;28369;44.046;23.014;2023-02-22T07:11:27;100596.38;;;13.16;43.64
42725;BME280;28369;44.046;23.014;2023-02-22T08:10:49;101198.78;;;19.87;39.03
42725;BME280;28369;44.046;23.014;2023-02-22T08:13:17;101009.56;;;18.76;39.34
42725;BME280;28369;44.046;23.014;2023-02-22T08:15:43;100713.75;;;17.14;38.69
42725;BME280;28369;44.046;23.014;2023-02-22T08:18:12;101188.81;;;19.80;39.55
42725;BME280;28369;44.046;23.014;2023-02-22T08:58:31;100809.16;;;18.27;37.52
42725;BME280;28369;44.046;23.014;2023-02-22T09:00:57;100877.84;;;18.95;37.60
42725;BME280;28369;44.046;23.014;2023-02-22T09:03:22;100840.06;;;18.83;37.29
42725;BME280;28369;44.046;23.014;2023-02-22T09:05:48;100914.94;;;19.73;37.28
42725;BME280;28369;44.046;23.014;2023-02-22T09:08:15;100751.25;;;18.76;36.93
42725;BME280;28369;44.046;23.014;2023-02-22T09:10:41;100866.59;;;19.23;36.96
42725;BME280;28369;44.046;23.014;2023-02-22T09:13:07;100805.94;;;19.10;36.86
42725;BME280;28369;44.046;23.014;2023-02-22T09:15:33;100709.94;;;18.65;36.01
42725;BME280;28369;44.046;23.014;2023-02-22T09:18:00;101040.63;;;20.76;36.28
42725;BME280;28369;44.046;23.014;2023-02-22T09:20:27;101023.41;;;20.03;37.00
42725;BME280;28369;44.046;23.014;2023-02-22T09:22:53;100697.28;;;18.44;37.26
42725;BME280;28369;44.046;23.014;2023-02-22T09:25:20;100777.00;;;19.22;35.91
42725;BME280;28369;44.046;23.014;2023-02-22T09:27:47;100703.50;;;18.13;37.02
42725;BME280;28369;44.046;23.014;2023-02-22T09:30:27;101173.09;;;22.03;36.29
42725;BME280;28369;44.046;23.014;2023-02-22T09:33:03;100689.56;;;18.72;36.38
42725;BME280;28369;44.046;23.014;2023-02-22T09:35:30;100751.53;;;19.04;36.20
42725;BME280;28369;44.046;23.014;2023-02-22T14:32:04;100940.91;;;22.18;34.01
42725;BME280;28369;44.046;23.014;2023-02-22T14:37:37;100827.00;;;21.39;33.61
42725;BME280;28369;44.046;23.014;2023-02-22T14:40:24;100938.56;;;22.37;33.40
42725;BME280;28369;44.046;23.014;2023-02-22T14:46:18;100927.69;;;22.10;33.26
42725;BME280;28369;44.046;23.014;2023-02-22T14:48:46;100928.84;;;21.94;33.99
42725;BME280;28369;44.046;23.014;2023-02-22T14:51:24;100609.16;;;19.80;34.30
42725;BME280;28369;44.046;23.014;2023-02-22T15:03:02;100920.88;;;21.22;35.16
42725;BME280;28369;44.046;23.014;2023-02-22T15:05:35;100904.16;;;20.92;35.42
42725;BME280;28369;44.046;23.014;2023-02-22T15:08:05;100837.38;;;20.55;35.04
42725;BME280;28369;44.046;23.014;2023-02-22T15:10:46;100935.25;;;21.00;36.00
42725;BME280;28369;44.046;23.014;2023-02-22T15:15:48;100921.50;;;21.03;35.85
42725;BME280;28369;44.046;23.014;2023-02-22T15:19:02;100892.91;;;20.75;36.09
42725;BME280;28369;44.046;23.014;2023-02-22T15:21:56;100943.50;;;20.83;35.91
42725;BME280;28369;44.046;23.014;2023-02-22T15:24:25;100923.88;;;20.91;35.92
42725;BME280;28369;44.046;23.014;2023-02-22T15:26:52;100906.38;;;20.88;35.91
42725;BME280;28369;44.046;23.014;2023-02-22T15:29:34;100904.56;;;20.23;36.61
42725;BME280;28369;44.046;23.014;2023-02-22T15:32:01;100934.75;;;20.38;36.59
42725;BME280;28369;44.046;23.014;2023-02-22T15:34:29;100925.38;;;20.42;36.49
42725;BME280;28369;44.046;23.014;2023-02-22T15:36:56;100848.84;;;19.83;36.43
42725;BME280;28369;44.046;23.014;2023-02-22T15:39:26;100800.63;;;19.69;36.60
42725;BME280;28369;44.046;23.014;2023-02-22T15:42:14;100741.78;;;19.11;37.01
42725;BME280;28369;44.046;23.014;2023-02-22T15:44:59;100935.47;;;20.32;36.88
42725;BME280;28369;44.046;23.014;2023-02-22T15:53:27;100909.06;;;19.62;37.66
42725;BME280;28369;44.046;23.014;2023-02-22T15:55:59;100935.84;;;19.46;37.98
42725;BME280;28369;44.046;23.014;2023-02-22T15:58:26;100894.56;;;19.27;38.01
42725;BME280;28369;44.046;23.014;2023-02-22T16:01:05;100920.66;;;19.31;38.25
42725;BME280;28369;44.046;23.014;2023-02-22T16:03:42;100962.44;;;19.39;38.40
42725;BME280;28369;44.046;23.014;2023-02-22T16:06:31;100933.06;;;18.70;39.35
42725;BME280;28369;44.046;23.014;2023-02-22T16:24:31;100944.59;;;18.62;39.46
42725;BME280;28369;44.046;23.014;2023-02-22T16:27:05;100843.41;;;17.99;39.35
42725;BME280;28369;44.046;23.014;2023-02-22T16:29:31;100972.03;;;18.62;39.67
42725;BME280;28369;44.046;23.014;2023-02-22T16:31:57;100940.81;;;18.48;39.80
42725;BME280;28369;44.046;23.014;2023-02-22T16:34:22;100847.94;;;17.74;40.05
42725;BME280;28369;44.046;23.014;2023-02-22T16:36:48;100890.06;;;18.10;39.61
42725;BME280;28369;44.046;23.014;2023-02-22T16:39:30;100949.06;;;18.22;40.36
42725;BME280;28369;44.046;23.014;2023-02-22T16:41:59;100975.19;;;18.26;40.39
42725;BME280;28369;44.046;23.014;2023-02-22T16:44:26;100973.59;;;18.48;40.54
42725;BME280;28369;44.046;23.014;2023-02-22T16:46:52;100909.16;;;17.33;41.15
42725;BME280;28369;44.046;23.014;2023-02-22T16:49:18;100940.19;;;17.57;41.61
42725;BME280;28369;44.046;23.014;2023-02-22T16:51:55;100958.28;;;17.53;41.56
42725;BME280;28369;44.046;23.014;2023-02-22T16:57:45;100973.75;;;17.99;40.62
42725;BME280;28369;44.046;23.014;2023-02-22T17:00:20;100838.09;;;17.10;40.88
42725;BME280;28369;44.046;23.014;2023-02-22T17:02:58;100993.53;;;18.05;41.02
42725;BME280;28369;44.046;23.014;2023-02-22T17:05:24;100992.22;;;17.92;41.33
42725;BME280;28369;44.046;23.014;2023-02-22T17:07:49;101028.22;;;18.20;41.01
42725;BME280;28369;44.046;23.014;2023-02-22T17:10:16;100859.50;;;17.17;41.61
42725;BME280;28369;44.046;23.014;2023-02-22T17:12:47;100703.50;;;16.36;41.12
42725;BME280;28369;44.046;23.014;2023-02-22T17:17:52;100978.91;;;17.59;42.16
42725;BME280;28369;44.046;23.014;2023-02-22T17:20:19;100867.38;;;16.51;42.64
42725;BME280;28369;44.046;23.014;2023-02-22T17:23:05;100869.91;;;16.77;42.36
42725;BME280;28369;44.046;23.014;2023-02-22T17:25:39;101025.91;;;17.67;42.11
42725;BME280;28369;44.046;23.014;2023-02-22T17:28:06;100928.25;;;17.20;41.96
42725;BME280;28369;44.046;23.014;2023-02-22T17:30:32;101011.97;;;17.65;41.76
42725;BME280;28369;44.046;23.014;2023-02-22T17:32:59;100932.56;;;17.29;41.54
42725;BME280;28369;44.046;23.014;2023-02-22T17:35:29;100846.31;;;16.66;41.95
42725;BME280;28369;44.046;23.014;2023-02-22T17:38:26;101028.06;;;17.88;41.91
42725;BME280;28369;44.046;23.014;2023-02-22T17:40:54;101036.22;;;17.70;42.16
42725;BME280;28369;44.046;23.014;2023-02-22T17:43:20;101020.75;;;17.41;42.46
42725;BME280;28369;44.046;23.014;2023-02-22T17:45:46;100983.50;;;17.00;42.98
42725;BME280;28369;44.046;23.014;2023-02-22T17:48:13;100862.97;;;15.82;44.26
42725;BME280;28369;44.046;23.014;2023-02-22T17:50:40;100874.22;;;15.58;44.68
42725;BME280;28369;44.046;23.014;2023-02-22T17:53:06;100973.47;;;16.42;44.51
42725;BME280;28369;44.046;23.014;2023-02-22T17:55:32;100997.84;;;16.12;45.38
42725;BME280;28369;44.046;23.014;2023-02-22T17:58:02;100982.63;;;16.14;45.44
42725;BME280;28369;44.046;23.014;2023-02-22T18:00:32;100990.97;;;16.27;45.11
42725;BME280;28369;44.046;23.014;2023-02-22T18:03:28;101027.94;;;16.55;44.82
42725;BME280;28369;44.046;23.014;2023-02-22T18:05:57;100968.94;;;16.00;45.65
42725;BME280;28369;44.046;23.014;2023-02-22T18:08:24;100899.06;;;15.57;45.56
42725;BME280;28369;44.046;23.014;2023-02-22T18:10:50;100979.13;;;16.13;45.39
42725;BME280;28369;44.046;23.014;2023-02-22T18:16:46;100854.31;;;15.54;45.03
42725;BME280;28369;44.046;23.014;2023-02-22T18:22:34;101005.72;;;15.95;46.78
42725;BME280;28369;44.046;23.014;2023-02-22T18:24:59;100995.66;;;15.81;46.29
42725;BME280;28369;44.046;23.014;2023-02-22T18:27:25;101008.34;;;16.21;45.96
42725;BME280;28369;44.046;23.014;2023-02-22T18:29:53;100997.03;;;16.11;45.80
42725;BME280;28369;44.046;23.014;2023-02-22T18:32:18;100924.63;;;15.66;45.61
42725;BME280;28369;44.046;23.014;2023-02-22T18:34:44;101011.53;;;16.25;45.76
42725;BME280;28369;44.046;23.014;2023-02-22T18:37:09;100947.72;;;16.00;45.51
42725;BME280;28369;44.046;23.014;2023-02-22T18:39:35;100965.13;;;16.29;45.06
42725;BME280;28369;44.046;23.014;2023-02-22T18:42:06;101001.66;;;16.78;44.38
42725;BME280;28369;44.046;23.014;2023-02-22T18:44:32;100984.75;;;16.87;44.18
42725;BME280;28369;44.046;23.014;2023-02-22T18:46:58;100902.00;;;16.41;44.00
42725;BME280;28369;44.046;23.014;2023-02-22T18:49:23;100984.31;;;17.00;43.63
42725;BME280;28369;44.046;23.014;2023-02-22T18:51:51;101018.06;;;17.16;43.90
42725;BME280;28369;44.046;23.014;2023-02-22T18:54:16;100999.13;;;17.11;43.64
42725;BME280;28369;44.046;23.014;2023-02-22T18:56:44;100851.56;;;16.33;43.12
42725;BME280;28369;44.046;23.014;2023-02-22T18:59:11;100761.56;;;15.80;43.13
42725;BME280;28369;44.046;23.014;2023-02-22T19:08:26;100913.47;;;16.50;42.87
42725;BME280;28369;44.046;23.014;2023-02-22T19:14:16;101011.09;;;17.32;42.63
42725;BME280;28369;44.046;23.014;2023-02-22T19:16:42;100971.91;;;17.25;42.37
42725;BME280;28369;44.046;23.014;2023-02-22T19:19:13;101001.31;;;17.49;42.15
42725;BME280;28369;44.046;23.014;2023-02-22T19:21:40;100989.31;;;17.12;42.32
42725;BME280;28369;44.046;23.014;2023-02-22T19:24:06;100975.22;;;17.11;42.19
42725;BME280;28369;44.046;23.014;2023-02-22T19:26:31;100929.47;;;16.83;42.46
42725;BME280;28369;44.046;23.014;2023-02-22T19:29:00;100919.13;;;16.55;42.69
42725;BME280;28369;44.046;23.014;2023-02-22T19:31:30;101033.84;;;17.18;43.01
42725;BME280;28369;44.046;23.014;2023-02-22T19:34:08;101069.81;;;16.69;44.38
42725;BME280;28369;44.046;23.014;2023-02-22T19:36:53;101039.28;;;16.65;44.41
42725;BME280;28369;44.046;23.014;2023-02-22T19:42:49;101015.13;;;16.16;44.81
42725;BME280;28369;44.046;23.014;2023-02-22T19:45:15;101030.66;;;16.37;45.02
42725;BME280;28369;44.046;23.014;2023-02-22T19:47:43;101024.22;;;16.13;45.17
42725;BME280;28369;44.046;23.014;2023-02-22T19:50:10;100950.19;;;15.76;44.92
42725;BME280;28369;44.046;23.014;2023-02-22T19:52:36;100928.75;;;15.87;44.30
42725;BME280;28369;44.046;23.014;2023-02-22T19:55:04;101017.28;;;16.47;44.12
42725;BME280;28369;44.046;23.014;2023-02-22T19:57:43;101031.75;;;16.52;44.46
42725;BME280;28369;44.046;23.014;2023-02-22T20:00:11;100973.13;;;16.37;43.96
42725;BME280;28369;44.046;23.014;2023-02-22T20:02:38;101062.25;;;16.83;43.78
42725;BME280;28369;44.046;23.014;2023-02-22T20:05:06;101009.44;;;16.37;44.29
42725;BME280;28369;44.046;23.014;2023-02-22T20:07:35;100948.63;;;15.83;44.46
42725;BME280;28369;44.046;23.014;2023-02-22T20:10:00;100985.50;;;16.20;44.36
42725;BME280;28369;44.046;23.014;2023-02-22T20:12:26;101064.19;;;16.72;44.10
42725;BME280;28369;44.046;23.014;2023-02-22T20:14:51;101046.84;;;16.52;44.35
42725;BME280;28369;44.046;23.014;2023-02-22T20:17:17;101042.16;;;16.19;44.76
42725;BME280;28369;44.046;23.014;2023-02-22T20:19:42;101043.00;;;16.20;45.10
42725;BME280;28369;44.046;23.014;2023-02-22T20:22:08;101011.34;;;16.00;44.81
42725;BME280;28369;44.046;23.014;2023-02-22T20:24:34;100961.50;;;15.78;44.52
42725;BME280;28369;44.046;23.014;2023-02-22T20:26:59;101050.56;;;16.67;44.06
42725;BME280;28369;44.046;23.014;2023-02-22T20:29:25;100981.00;;;16.21;43.92
42725;BME280;28369;44.046;23.014;2023-02-22T20:31:55;101049.59;;;16.76;43.67
42725;BME280;28369;44.046;23.014;2023-02-22T20:34:21;101017.44;;;16.19;44.68
42725;BME280;28369;44.046;23.014;2023-02-22T20:36:47;100906.66;;;15.34;44.75
42725;BME280;28369;44.046;23.014;2023-02-22T20:39:13;100801.78;;;14.79;44.25
42725;BME280;28369;44.046;23.014;2023-02-22T20:41:43;100946.88;;;15.73;44.51
42725;BME280;28369;44.046;23.014;2023-02-22T20:44:14;100961.28;;;15.89;44.42
42725;BME280;28369;44.046;23.014;2023-02-22T20:46:40;101051.16;;;16.53;44.28
42725;BME280;28369;44.046;23.014;2023-02-22T20:49:08;100978.56;;;16.01;44.06
42725;BME280;28369;44.046;23.014;2023-02-22T20:51:36;101003.78;;;16.05;44.24
42725;BME280;28369;44.046;23.014;2023-02-22T20:54:04;100914.84;;;15.67;44.21
42725;BME280;28369;44.046;23.014;2023-02-22T20:56:30;101044.34;;;16.24;43.86
42725;BME280;28369;44.046;23.014;2023-02-22T20:58:58;101052.09;;;16.44;44.02
42725;BME280;28369;44.046;23.014;2023-02-22T21:01:24;100768.97;;;14.90;43.51
42725;BME280;28369;44.046;23.014;2023-02-22T21:03:50;100971.59;;;16.00;43.71
42725;BME280;28369;44.046;23.014;2023-02-22T21:06:18;100966.16;;;16.02;43.72
42725;BME280;28369;44.046;23.014;2023-02-22T21:08:49;101015.56;;;16.37;43.63
42725;BME280;28369;44.046;23.014;2023-02-22T21:11:16;100893.09;;;15.81;43.12
42725;BME280;28369;44.046;23.014;2023-02-22T21:13:42;100915.56;;;15.77;43.26
42725;BME280;28369;44.046;23.014;2023-02-22T21:16:18;100895.91;;;15.80;43.20
42725;BME280;28369;44.046;23.014;2023-02-22T21:19:06;100926.97;;;15.69;43.43
42725;BME280;28369;44.046;23.014;2023-02-22T21:21:32;101005.19;;;16.18;43.50
42725;BME280;28369;44.046;23.014;2023-02-22T21:23:58;100943.50;;;15.63;43.71
42725;BME280;28369;44.046;23.014;2023-02-22T21:26:30;100940.81;;;15.19;44.22
42725;BME280;28369;44.046;23.014;2023-02-22T21:29:03;101042.00;;;15.77;44.37
42725;BME280;28369;44.046;23.014;2023-02-22T21:31:30;100927.47;;;14.93;44.44
42725;BME280;28369;44.046;23.014;2023-02-22T21:33:57;101055.38;;;15.57;44.83
42725;BME280;28369;44.046;23.014;2023-02-22T21:36:24;100947.13;;;14.72;44.95
42725;BME280;28369;44.046;23.014;2023-02-22T21:38:56;101032.00;;;15.34;45.03
42725;BME280;28369;44.046;23.014;2023-02-22T21:41:24;100893.13;;;14.37;45.07
42725;BME280;28369;44.046;23.014;2023-02-22T21:43:51;101053.19;;;15.34;45.22
42725;BME280;28369;44.046;23.014;2023-02-22T21:46:18;101059.09;;;15.28;45.23
42725;BME280;28369;44.046;23.014;2023-02-22T21:48:44;101041.56;;;15.17;45.50
42725;BME280;28369;44.046;23.014;2023-02-22T21:51:24;101060.13;;;15.17;45.75
42725;BME280;28369;44.046;23.014;2023-02-22T21:53:52;100901.06;;;14.09;46.02
42725;BME280;28369;44.046;23.014;2023-02-22T21:56:23;101025.38;;;15.02;45.86
42725;BME280;28369;44.046;23.014;2023-02-22T21:58:57;101014.84;;;14.93;45.69
42725;BME280;28369;44.046;23.014;2023-02-22T22:01:27;101062.66;;;15.19;45.68
42725;BME280;28369;44.046;23.014;2023-02-22T22:03:53;100941.13;;;14.42;45.59
42725;BME280;28369;44.046;23.014;2023-02-22T22:06:19;100927.53;;;14.27;45.77
42725;BME280;28369;44.046;23.014;2023-02-22T22:08:45;101018.47;;;14.54;46.33
42725;BME280;28369;44.046;23.014;2023-02-22T22:11:11;101059.19;;;14.43;47.56
42725;BME280;28369;44.046;23.014;2023-02-22T22:13:39;101070.56;;;14.63;47.65
42725;BME280;28369;44.046;23.014;2023-02-22T22:16:06;101057.47;;;14.52;47.46
42725;BME280;28369;44.046;23.014;2023-02-22T22:18:37;101043.53;;;14.60;47.55
42725;BME280;28369;44.046;23.014;2023-02-22T22:21:11;101040.47;;;14.64;47.37
42725;BME280;28369;44.046;23.014;2023-02-22T22:23:40;101040.47;;;14.55;47.73
42725;BME280;28369;44.046;23.014;2023-02-22T22:26:07;100940.63;;;13.81;47.79
42725;BME280;28369;44.046;23.014;2023-02-22T22:28:40;100803.16;;;13.06;47.74
42725;BME280;28369;44.046;23.014;2023-02-22T22:31:06;101026.09;;;14.29;47.74
42725;BME280;28369;44.046;23.014;2023-02-22T22:33:33;101053.31;;;14.49;47.71
42725;BME280;28369;44.046;23.014;2023-02-22T22:35:59;100934.47;;;14.00;47.41
42725;BME280;28369;44.046;23.014;2023-02-22T22:38:24;101069.66;;;14.25;47.42
42725;BME280;28369;44.046;23.014;2023-02-22T22:40:51;101002.81;;;13.76;48.10
42725;BME280;28369;44.046;23.014;2023-02-22T22:43:18;101036.19;;;13.87;48.47
42725;BME280;28369;44.046;23.014;2023-02-22T22:45:44;101048.56;;;13.86;48.89
42725;BME280;28369;44.046;23.014;2023-02-22T22:48:11;100922.47;;;13.29;48.71
42725;BME280;28369;44.046;23.014;2023-02-22T22:50:40;101034.25;;;13.79;49.04
42725;BME280;28369;44.046;23.014;2023-02-22T22:53:10;101020.63;;;13.74;48.87
42725;BME280;28369;44.046;23.014;2023-02-22T22:55:39;100973.59;;;13.28;48.61
42725;BME280;28369;44.046;23.014;2023-02-22T22:58:06;101076.06;;;14.13;48.76
42725;BME280;28369;44.046;23.014;2023-02-22T23:00:34;101045.22;;;14.04;48.70
42725;BME280;28369;44.046;23.014;2023-02-22T23:03:06;101028.69;;;13.92;49.00
42725;BME280;28369;44.046;23.014;2023-02-22T23:05:38;101054.81;;;13.95;48.66
42725;BME280;28369;44.046;23.014;2023-02-22T23:08:04;101066.22;;;13.95;48.41
42725;BME280;28369;44.046;23.014;2023-02-22T23:10:31;100794.47;;;11.75;48.74
42725;BME280;28369;44.046;23.014;2023-02-22T23:12:57;101026.13;;;13.22;49.43
42725;BME280;28369;44.046;23.014;2023-02-22T23:15:23;101001.47;;;13.02;49.30
42725;BME280;28369;44.046;23.014;2023-02-22T23:17:52;101044.19;;;13.26;49.45
42725;BME280;28369;44.046;23.014;2023-02-22T23:20:24;101054.16;;;13.13;49.96
42725;BME280;28369;44.046;23.014;2023-02-22T23:22:54;101045.59;;;12.80;50.72
42725;BME280;28369;44.046;23.014;2023-02-22T23:25:23;101083.28;;;12.92;51.49
42725;BME280;28369;44.046;23.014;2023-02-22T23:31:19;101044.81;;;12.58;52.75
42725;BME280;28369;44.046;23.014;2023-02-22T23:37:09;101058.41;;;11.58;54.49
42725;BME280;28369;44.046;23.014;2023-02-22T23:39:37;101068.34;;;12.19;53.90
42725;BME280;28369;44.046;23.014;2023-02-22T23:42:03;100946.53;;;10.87;54.91
42725;BME280;28369;44.046;23.014;2023-02-22T23:44:28;101094.53;;;11.56;57.00
42725;BME280;28369;44.046;23.014;2023-02-22T23:46:54;101020.41;;;10.84;57.13
42725;BME280;28369;44.046;23.014;2023-02-22T23:52:36;101109.22;;;11.70;55.67
42725;BME280;28369;44.046;23.014;2023-02-22T23:55:03;101082.84;;;11.49;55.52
42725;BME280;28369;44.046;23.014;2023-02-22T23:57:31;101086.56;;;11.57;55.76
42725;BME280;28369;44.046;23.014;2023-02-22T23:59:56;101048.22;;;11.21;55.76
